sensor_id;sensor_type;location;lat;lon;timestamp;P1;durP1;ratioP1;P2;durP2;ratioP2
2972;SDS011;1496;51.404;7.232;2024-03-08T00:01:40;23.33;;;14.80;;
2972;SDS011;1496;51.404;7.232;2024-03-08T00:04:06;23.53;;;14.00;;
2972;SDS011;1496;51.404;7.232;2024-03-08T00:06:32;21.53;;;14.30;;
2972;SDS011;1496;51.404;7.232;2024-03-08T00:08:57;22.03;;;15.40;;
2972;SDS011;1496;51.404;7.232;2024-03-08T00:11:23;25.70;;;15.03;;
2972;SDS011;1496;51.404;7.232;2024-03-08T00:13:51;22.43;;;14.47;;
2972;SDS011;1496;51.404;7.232;2024-03-08T00:16:18;20.93;;;14.53;;
2972;SDS011;1496;51.404;7.232;2024-03-08T00:18:48;24.93;;;15.50;;
2972;SDS011;1496;51.404;7.232;2024-03-08T00:21:14;22.03;;;15.03;;
2972;SDS011;1496;51.404;7.232;2024-03-08T00:23:40;24.37;;;15.90;;
2972;SDS011;1496;51.404;7.232;2024-03-08T00:26:06;26.77;;;15.60;;
2972;SDS011;1496;51.404;7.232;2024-03-08T00:28:32;24.20;;;15.77;;
2972;SDS011;1496;51.404;7.232;2024-03-08T00:30:59;21.73;;;15.03;;
2972;SDS011;1496;51.404;7.232;2024-03-08T00:33:25;27.37;;;16.13;;
2972;SDS011;1496;51.404;7.232;2024-03-08T00:35:53;24.93;;;16.20;;
2972;SDS011;1496;51.404;7.232;2024-03-08T00:38:19;24.70;;;14.50;;
2972;SDS011;1496;51.404;7.232;2024-03-08T00:40:45;31.10;;;17.03;;
2972;SDS011;1496;51.404;7.232;2024-03-08T00:43:10;25.50;;;14.83;;
2972;SDS011;1496;51.404;7.232;2024-03-08T00:45:36;25.00;;;15.50;;
2972;SDS011;1496;51.404;7.232;2024-03-08T00:48:02;24.93;;;16.30;;
2972;SDS011;1496;51.404;7.232;2024-03-08T00:50:29;26.73;;;15.83;;
2972;SDS011;1496;51.404;7.232;2024-03-08T00:52:54;26.50;;;16.03;;
2972;SDS011;1496;51.404;7.232;2024-03-08T00:55:21;24.50;;;15.97;;
2972;SDS011;1496;51.404;7.232;2024-03-08T00:57:50;23.90;;;14.90;;
2972;SDS011;1496;51.404;7.232;2024-03-08T01:00:15;26.33;;;16.60;;
2972;SDS011;1496;51.404;7.232;2024-03-08T01:02:42;24.33;;;15.70;;
2972;SDS011;1496;51.404;7.232;2024-03-08T01:05:07;27.00;;;15.30;;
2972;SDS011;1496;51.404;7.232;2024-03-08T01:07:34;26.33;;;16.27;;
2972;SDS011;1496;51.404;7.232;2024-03-08T01:10:00;20.87;;;14.53;;
2972;SDS011;1496;51.404;7.232;2024-03-08T01:12:29;22.93;;;15.77;;
2972;SDS011;1496;51.404;7.232;2024-03-08T01:14:55;29.03;;;17.33;;
2972;SDS011;1496;51.404;7.232;2024-03-08T01:17:23;24.20;;;15.47;;
2972;SDS011;1496;51.404;7.232;2024-03-08T01:19:49;25.33;;;16.47;;
2972;SDS011;1496;51.404;7.232;2024-03-08T01:22:14;27.10;;;16.93;;
2972;SDS011;1496;51.404;7.232;2024-03-08T01:24:55;32.37;;;17.60;;
2972;SDS011;1496;51.404;7.232;2024-03-08T01:27:21;26.97;;;16.30;;
2972;SDS011;1496;51.404;7.232;2024-03-08T01:29:47;25.80;;;16.67;;
2972;SDS011;1496;51.404;7.232;2024-03-08T01:32:14;25.93;;;18.20;;
2972;SDS011;1496;51.404;7.232;2024-03-08T01:34:40;29.83;;;18.13;;
2972;SDS011;1496;51.404;7.232;2024-03-08T01:37:05;30.20;;;17.43;;
2972;SDS011;1496;51.404;7.232;2024-03-08T01:39:35;30.17;;;19.23;;
2972;SDS011;1496;51.404;7.232;2024-03-08T01:42:04;44.13;;;18.53;;
2972;SDS011;1496;51.404;7.232;2024-03-08T01:44:30;24.30;;;16.60;;
2972;SDS011;1496;51.404;7.232;2024-03-08T01:46:56;26.67;;;15.80;;
2972;SDS011;1496;51.404;7.232;2024-03-08T01:49:22;28.37;;;17.60;;
2972;SDS011;1496;51.404;7.232;2024-03-08T01:51:53;33.40;;;16.67;;
2972;SDS011;1496;51.404;7.232;2024-03-08T01:54:22;29.33;;;17.37;;
2972;SDS011;1496;51.404;7.232;2024-03-08T01:56:49;28.13;;;17.80;;
2972;SDS011;1496;51.404;7.232;2024-03-08T01:59:15;26.10;;;16.87;;
2972;SDS011;1496;51.404;7.232;2024-03-08T02:01:41;28.67;;;16.07;;
2972;SDS011;1496;51.404;7.232;2024-03-08T02:04:07;32.07;;;17.17;;
2972;SDS011;1496;51.404;7.232;2024-03-08T02:06:33;26.07;;;16.00;;
2972;SDS011;1496;51.404;7.232;2024-03-08T02:08:58;33.10;;;17.97;;
2972;SDS011;1496;51.404;7.232;2024-03-08T02:11:25;31.57;;;17.50;;
2972;SDS011;1496;51.404;7.232;2024-03-08T02:13:50;30.07;;;16.40;;
2972;SDS011;1496;51.404;7.232;2024-03-08T02:16:20;30.43;;;16.70;;
2972;SDS011;1496;51.404;7.232;2024-03-08T02:18:46;32.90;;;20.17;;
2972;SDS011;1496;51.404;7.232;2024-03-08T02:21:12;27.80;;;18.80;;
2972;SDS011;1496;51.404;7.232;2024-03-08T02:23:38;30.00;;;18.47;;
2972;SDS011;1496;51.404;7.232;2024-03-08T02:26:05;33.03;;;19.03;;
2972;SDS011;1496;51.404;7.232;2024-03-08T02:28:32;31.20;;;17.20;;
2972;SDS011;1496;51.404;7.232;2024-03-08T02:30:59;28.33;;;17.93;;
2972;SDS011;1496;51.404;7.232;2024-03-08T02:33:25;31.40;;;18.60;;
2972;SDS011;1496;51.404;7.232;2024-03-08T02:35:51;27.60;;;16.27;;
2972;SDS011;1496;51.404;7.232;2024-03-08T02:38:18;30.47;;;18.03;;
2972;SDS011;1496;51.404;7.232;2024-03-08T02:40:45;26.63;;;16.90;;
2972;SDS011;1496;51.404;7.232;2024-03-08T02:43:13;26.43;;;15.80;;
2972;SDS011;1496;51.404;7.232;2024-03-08T02:45:40;24.60;;;16.23;;
2972;SDS011;1496;51.404;7.232;2024-03-08T02:48:09;28.73;;;16.33;;
2972;SDS011;1496;51.404;7.232;2024-03-08T02:50:36;30.07;;;18.50;;
2972;SDS011;1496;51.404;7.232;2024-03-08T02:53:01;31.40;;;16.67;;
2972;SDS011;1496;51.404;7.232;2024-03-08T02:55:27;31.73;;;18.50;;
2972;SDS011;1496;51.404;7.232;2024-03-08T02:57:54;33.73;;;17.13;;
2972;SDS011;1496;51.404;7.232;2024-03-08T03:00:21;33.20;;;18.80;;
2972;SDS011;1496;51.404;7.232;2024-03-08T03:02:48;30.67;;;17.70;;
2972;SDS011;1496;51.404;7.232;2024-03-08T03:05:21;31.83;;;18.90;;
2972;SDS011;1496;51.404;7.232;2024-03-08T03:07:48;27.40;;;17.17;;
2972;SDS011;1496;51.404;7.232;2024-03-08T03:10:13;31.73;;;18.70;;
2972;SDS011;1496;51.404;7.232;2024-03-08T03:12:42;38.63;;;19.10;;
2972;SDS011;1496;51.404;7.232;2024-03-08T03:15:08;29.87;;;18.63;;
2972;SDS011;1496;51.404;7.232;2024-03-08T03:17:34;27.93;;;17.50;;
2972;SDS011;1496;51.404;7.232;2024-03-08T03:20:00;25.13;;;15.67;;
2972;SDS011;1496;51.404;7.232;2024-03-08T03:22:36;33.97;;;19.27;;
2972;SDS011;1496;51.404;7.232;2024-03-08T03:25:02;28.80;;;17.53;;
2972;SDS011;1496;51.404;7.232;2024-03-08T03:27:32;30.90;;;17.73;;
2972;SDS011;1496;51.404;7.232;2024-03-08T03:29:57;28.97;;;18.20;;
2972;SDS011;1496;51.404;7.232;2024-03-08T03:32:44;28.70;;;16.90;;
2972;SDS011;1496;51.404;7.232;2024-03-08T03:35:12;35.50;;;20.70;;
2972;SDS011;1496;51.404;7.232;2024-03-08T03:37:39;28.17;;;17.90;;
2972;SDS011;1496;51.404;7.232;2024-03-08T03:40:08;26.70;;;17.20;;
2972;SDS011;1496;51.404;7.232;2024-03-08T03:42:34;27.33;;;16.23;;
2972;SDS011;1496;51.404;7.232;2024-03-08T03:44:59;30.60;;;18.40;;
2972;SDS011;1496;51.404;7.232;2024-03-08T03:47:25;32.03;;;19.70;;
2972;SDS011;1496;51.404;7.232;2024-03-08T03:49:52;34.00;;;17.47;;
2972;SDS011;1496;51.404;7.232;2024-03-08T03:52:19;30.83;;;17.33;;
2972;SDS011;1496;51.404;7.232;2024-03-08T03:54:44;30.83;;;18.70;;
2972;SDS011;1496;51.404;7.232;2024-03-08T03:57:10;30.77;;;18.23;;
2972;SDS011;1496;51.404;7.232;2024-03-08T03:59:37;30.70;;;16.90;;
2972;SDS011;1496;51.404;7.232;2024-03-08T04:02:06;34.90;;;18.07;;
2972;SDS011;1496;51.404;7.232;2024-03-08T04:04:31;29.27;;;17.83;;
2972;SDS011;1496;51.404;7.232;2024-03-08T04:06:57;30.27;;;17.30;;
2972;SDS011;1496;51.404;7.232;2024-03-08T04:09:23;33.73;;;19.90;;
2972;SDS011;1496;51.404;7.232;2024-03-08T04:14:57;26.77;;;15.93;;
2972;SDS011;1496;51.404;7.232;2024-03-08T04:17:23;26.77;;;17.17;;
2972;SDS011;1496;51.404;7.232;2024-03-08T04:19:51;32.67;;;18.50;;
2972;SDS011;1496;51.404;7.232;2024-03-08T04:22:17;34.57;;;16.50;;
2972;SDS011;1496;51.404;7.232;2024-03-08T04:24:43;30.20;;;17.20;;
2972;SDS011;1496;51.404;7.232;2024-03-08T04:27:10;32.60;;;17.57;;
2972;SDS011;1496;51.404;7.232;2024-03-08T04:29:36;33.47;;;18.07;;
2972;SDS011;1496;51.404;7.232;2024-03-08T04:32:02;27.43;;;17.33;;
2972;SDS011;1496;51.404;7.232;2024-03-08T04:34:29;37.80;;;17.90;;
2972;SDS011;1496;51.404;7.232;2024-03-08T04:36:58;32.33;;;19.87;;
2972;SDS011;1496;51.404;7.232;2024-03-08T04:39:24;31.80;;;19.87;;
2972;SDS011;1496;51.404;7.232;2024-03-08T04:41:53;33.07;;;17.43;;
2972;SDS011;1496;51.404;7.232;2024-03-08T04:44:19;28.23;;;18.87;;
2972;SDS011;1496;51.404;7.232;2024-03-08T04:46:45;29.90;;;17.87;;
2972;SDS011;1496;51.404;7.232;2024-03-08T04:49:11;34.47;;;19.17;;
2972;SDS011;1496;51.404;7.232;2024-03-08T04:51:38;31.93;;;18.83;;
2972;SDS011;1496;51.404;7.232;2024-03-08T04:54:04;32.63;;;16.50;;
2972;SDS011;1496;51.404;7.232;2024-03-08T04:56:32;37.27;;;18.50;;
2972;SDS011;1496;51.404;7.232;2024-03-08T05:01:56;37.53;;;19.40;;
2972;SDS011;1496;51.404;7.232;2024-03-08T05:04:21;33.83;;;19.17;;
2972;SDS011;1496;51.404;7.232;2024-03-08T05:06:47;31.77;;;17.60;;
2972;SDS011;1496;51.404;7.232;2024-03-08T05:09:13;34.03;;;19.13;;
2972;SDS011;1496;51.404;7.232;2024-03-08T05:11:43;33.33;;;18.03;;
2972;SDS011;1496;51.404;7.232;2024-03-08T05:14:17;33.37;;;18.10;;
2972;SDS011;1496;51.404;7.232;2024-03-08T05:16:46;32.50;;;16.93;;
2972;SDS011;1496;51.404;7.232;2024-03-08T05:19:15;33.80;;;19.67;;
2972;SDS011;1496;51.404;7.232;2024-03-08T05:21:43;36.33;;;19.43;;
2972;SDS011;1496;51.404;7.232;2024-03-08T05:24:10;33.10;;;19.00;;
2972;SDS011;1496;51.404;7.232;2024-03-08T05:26:37;32.53;;;19.00;;
2972;SDS011;1496;51.404;7.232;2024-03-08T05:32:41;36.30;;;17.93;;
2972;SDS011;1496;51.404;7.232;2024-03-08T05:35:10;32.80;;;18.23;;
2972;SDS011;1496;51.404;7.232;2024-03-08T05:37:38;29.63;;;17.70;;
2972;SDS011;1496;51.404;7.232;2024-03-08T05:40:07;38.00;;;18.30;;
2972;SDS011;1496;51.404;7.232;2024-03-08T05:42:34;32.03;;;17.67;;
2972;SDS011;1496;51.404;7.232;2024-03-08T05:45:01;33.63;;;19.60;;
2972;SDS011;1496;51.404;7.232;2024-03-08T05:47:31;37.70;;;19.17;;
2972;SDS011;1496;51.404;7.232;2024-03-08T05:50:00;32.10;;;17.80;;
2972;SDS011;1496;51.404;7.232;2024-03-08T05:52:26;32.80;;;17.80;;
2972;SDS011;1496;51.404;7.232;2024-03-08T05:54:52;35.97;;;18.20;;
2972;SDS011;1496;51.404;7.232;2024-03-08T05:57:18;38.60;;;20.30;;
2972;SDS011;1496;51.404;7.232;2024-03-08T05:59:44;37.87;;;21.07;;
2972;SDS011;1496;51.404;7.232;2024-03-08T06:02:09;32.77;;;20.07;;
2972;SDS011;1496;51.404;7.232;2024-03-08T06:04:35;36.13;;;20.53;;
2972;SDS011;1496;51.404;7.232;2024-03-08T06:07:01;35.87;;;19.70;;
2972;SDS011;1496;51.404;7.232;2024-03-08T06:09:28;35.27;;;19.07;;
2972;SDS011;1496;51.404;7.232;2024-03-08T06:11:56;37.37;;;20.33;;
2972;SDS011;1496;51.404;7.232;2024-03-08T06:14:38;33.77;;;20.30;;
2972;SDS011;1496;51.404;7.232;2024-03-08T06:17:45;41.23;;;18.37;;
2972;SDS011;1496;51.404;7.232;2024-03-08T06:20:11;36.97;;;20.20;;
2972;SDS011;1496;51.404;7.232;2024-03-08T06:22:38;34.20;;;18.33;;
2972;SDS011;1496;51.404;7.232;2024-03-08T06:25:10;42.20;;;18.67;;
2972;SDS011;1496;51.404;7.232;2024-03-08T06:27:42;32.23;;;20.10;;
2972;SDS011;1496;51.404;7.232;2024-03-08T06:30:09;50.67;;;19.87;;
2972;SDS011;1496;51.404;7.232;2024-03-08T06:32:38;39.87;;;20.47;;
2972;SDS011;1496;51.404;7.232;2024-03-08T06:35:04;39.23;;;18.70;;
2972;SDS011;1496;51.404;7.232;2024-03-08T06:37:32;49.10;;;21.37;;
2972;SDS011;1496;51.404;7.232;2024-03-08T06:39:58;37.47;;;20.47;;
2972;SDS011;1496;51.404;7.232;2024-03-08T06:42:23;37.90;;;20.27;;
2972;SDS011;1496;51.404;7.232;2024-03-08T06:44:49;36.47;;;20.07;;
2972;SDS011;1496;51.404;7.232;2024-03-08T06:47:15;36.13;;;20.00;;
2972;SDS011;1496;51.404;7.232;2024-03-08T06:49:44;36.30;;;20.27;;
2972;SDS011;1496;51.404;7.232;2024-03-08T06:52:10;41.20;;;22.93;;
2972;SDS011;1496;51.404;7.232;2024-03-08T06:54:36;39.97;;;21.30;;
2972;SDS011;1496;51.404;7.232;2024-03-08T06:57:05;38.37;;;20.83;;
2972;SDS011;1496;51.404;7.232;2024-03-08T06:59:31;45.50;;;21.87;;
2972;SDS011;1496;51.404;7.232;2024-03-08T07:01:57;39.03;;;21.07;;
2972;SDS011;1496;51.404;7.232;2024-03-08T07:04:24;43.53;;;20.67;;
2972;SDS011;1496;51.404;7.232;2024-03-08T07:06:54;40.57;;;20.20;;
2972;SDS011;1496;51.404;7.232;2024-03-08T07:09:23;34.87;;;21.03;;
2972;SDS011;1496;51.404;7.232;2024-03-08T07:11:52;43.67;;;21.70;;
2972;SDS011;1496;51.404;7.232;2024-03-08T07:14:21;36.80;;;20.60;;
2972;SDS011;1496;51.404;7.232;2024-03-08T07:16:47;34.60;;;19.20;;
2972;SDS011;1496;51.404;7.232;2024-03-08T07:19:13;34.77;;;21.20;;
2972;SDS011;1496;51.404;7.232;2024-03-08T07:21:38;38.97;;;20.57;;
2972;SDS011;1496;51.404;7.232;2024-03-08T07:24:04;32.43;;;19.60;;
2972;SDS011;1496;51.404;7.232;2024-03-08T07:26:45;34.70;;;20.13;;
2972;SDS011;1496;51.404;7.232;2024-03-08T07:29:14;35.60;;;20.77;;
2972;SDS011;1496;51.404;7.232;2024-03-08T07:31:44;36.63;;;20.73;;
2972;SDS011;1496;51.404;7.232;2024-03-08T07:34:16;41.47;;;23.00;;
2972;SDS011;1496;51.404;7.232;2024-03-08T07:36:42;38.63;;;20.87;;
2972;SDS011;1496;51.404;7.232;2024-03-08T07:39:07;43.77;;;22.57;;
2972;SDS011;1496;51.404;7.232;2024-03-08T07:41:39;43.03;;;22.97;;
2972;SDS011;1496;51.404;7.232;2024-03-08T07:44:06;36.30;;;20.80;;
2972;SDS011;1496;51.404;7.232;2024-03-08T07:46:43;48.90;;;22.00;;
2972;SDS011;1496;51.404;7.232;2024-03-08T07:49:10;38.30;;;20.13;;
2972;SDS011;1496;51.404;7.232;2024-03-08T07:51:39;38.40;;;20.93;;
2972;SDS011;1496;51.404;7.232;2024-03-08T07:54:05;34.67;;;20.60;;
2972;SDS011;1496;51.404;7.232;2024-03-08T07:56:32;39.53;;;20.57;;
2972;SDS011;1496;51.404;7.232;2024-03-08T07:58:58;38.77;;;21.90;;
2972;SDS011;1496;51.404;7.232;2024-03-08T08:01:48;35.40;;;20.50;;
2972;SDS011;1496;51.404;7.232;2024-03-08T08:04:14;34.10;;;20.90;;
2972;SDS011;1496;51.404;7.232;2024-03-08T08:06:43;32.93;;;20.37;;
2972;SDS011;1496;51.404;7.232;2024-03-08T08:09:08;39.37;;;21.33;;
2972;SDS011;1496;51.404;7.232;2024-03-08T08:11:41;44.00;;;21.60;;
2972;SDS011;1496;51.404;7.232;2024-03-08T08:14:09;39.47;;;21.03;;
2972;SDS011;1496;51.404;7.232;2024-03-08T08:16:44;33.20;;;18.80;;
2972;SDS011;1496;51.404;7.232;2024-03-08T08:19:13;37.60;;;19.60;;
2972;SDS011;1496;51.404;7.232;2024-03-08T08:21:40;34.30;;;20.13;;
2972;SDS011;1496;51.404;7.232;2024-03-08T08:24:06;42.10;;;19.30;;
2972;SDS011;1496;51.404;7.232;2024-03-08T08:26:32;34.07;;;19.97;;
2972;SDS011;1496;51.404;7.232;2024-03-08T08:29:01;35.37;;;20.63;;
2972;SDS011;1496;51.404;7.232;2024-03-08T08:31:26;29.70;;;17.00;;
2972;SDS011;1496;51.404;7.232;2024-03-08T08:33:53;35.90;;;19.73;;
2972;SDS011;1496;51.404;7.232;2024-03-08T08:36:28;29.90;;;16.93;;
2972;SDS011;1496;51.404;7.232;2024-03-08T08:38:55;32.10;;;17.13;;
2972;SDS011;1496;51.404;7.232;2024-03-08T08:41:23;30.90;;;17.83;;
2972;SDS011;1496;51.404;7.232;2024-03-08T08:43:49;32.50;;;17.90;;
2972;SDS011;1496;51.404;7.232;2024-03-08T08:46:18;25.60;;;15.73;;
2972;SDS011;1496;51.404;7.232;2024-03-08T08:48:44;36.90;;;20.00;;
2972;SDS011;1496;51.404;7.232;2024-03-08T08:51:11;28.10;;;15.60;;
2972;SDS011;1496;51.404;7.232;2024-03-08T08:53:40;29.70;;;16.57;;
2972;SDS011;1496;51.404;7.232;2024-03-08T08:56:11;24.47;;;14.90;;
2972;SDS011;1496;51.404;7.232;2024-03-08T08:58:44;25.60;;;15.93;;
2972;SDS011;1496;51.404;7.232;2024-03-08T09:01:10;30.63;;;16.73;;
2972;SDS011;1496;51.404;7.232;2024-03-08T09:03:36;29.87;;;17.50;;
2972;SDS011;1496;51.404;7.232;2024-03-08T09:06:06;26.30;;;17.90;;
2972;SDS011;1496;51.404;7.232;2024-03-08T09:08:35;23.80;;;14.60;;
2972;SDS011;1496;51.404;7.232;2024-03-08T09:11:01;28.50;;;17.03;;
2972;SDS011;1496;51.404;7.232;2024-03-08T09:13:27;25.03;;;16.37;;
2972;SDS011;1496;51.404;7.232;2024-03-08T09:15:53;30.67;;;16.43;;
2972;SDS011;1496;51.404;7.232;2024-03-08T09:18:19;23.87;;;14.43;;
2972;SDS011;1496;51.404;7.232;2024-03-08T09:20:48;29.53;;;17.67;;
2972;SDS011;1496;51.404;7.232;2024-03-08T09:23:15;26.27;;;14.83;;
2972;SDS011;1496;51.404;7.232;2024-03-08T09:25:42;27.67;;;15.80;;
2972;SDS011;1496;51.404;7.232;2024-03-08T09:28:08;29.00;;;16.97;;
2972;SDS011;1496;51.404;7.232;2024-03-08T09:30:37;25.33;;;15.80;;
2972;SDS011;1496;51.404;7.232;2024-03-08T09:33:03;28.83;;;16.33;;
2972;SDS011;1496;51.404;7.232;2024-03-08T09:35:29;24.20;;;15.83;;
2972;SDS011;1496;51.404;7.232;2024-03-08T09:37:55;28.43;;;15.23;;
2972;SDS011;1496;51.404;7.232;2024-03-08T09:40:21;31.50;;;16.80;;
2972;SDS011;1496;51.404;7.232;2024-03-08T09:42:49;22.87;;;15.90;;
2972;SDS011;1496;51.404;7.232;2024-03-08T09:45:15;31.67;;;15.83;;
2972;SDS011;1496;51.404;7.232;2024-03-08T09:47:43;28.00;;;16.07;;
2972;SDS011;1496;51.404;7.232;2024-03-08T09:50:10;28.20;;;17.83;;
2972;SDS011;1496;51.404;7.232;2024-03-08T09:52:39;23.93;;;14.40;;
2972;SDS011;1496;51.404;7.232;2024-03-08T09:55:06;25.70;;;16.10;;
2972;SDS011;1496;51.404;7.232;2024-03-08T09:57:32;27.00;;;15.53;;
2972;SDS011;1496;51.404;7.232;2024-03-08T09:59:59;24.03;;;15.10;;
2972;SDS011;1496;51.404;7.232;2024-03-08T10:02:25;30.97;;;17.77;;
2972;SDS011;1496;51.404;7.232;2024-03-08T10:04:51;27.13;;;15.03;;
2972;SDS011;1496;51.404;7.232;2024-03-08T10:07:27;29.30;;;16.03;;
2972;SDS011;1496;51.404;7.232;2024-03-08T10:09:54;26.37;;;15.90;;
2972;SDS011;1496;51.404;7.232;2024-03-08T10:12:20;27.13;;;15.70;;
2972;SDS011;1496;51.404;7.232;2024-03-08T10:14:46;24.40;;;15.27;;
2972;SDS011;1496;51.404;7.232;2024-03-08T10:17:12;25.87;;;15.83;;
2972;SDS011;1496;51.404;7.232;2024-03-08T10:19:37;27.53;;;16.00;;
2972;SDS011;1496;51.404;7.232;2024-03-08T10:22:06;26.43;;;15.40;;
2972;SDS011;1496;51.404;7.232;2024-03-08T10:24:39;26.20;;;15.90;;
2972;SDS011;1496;51.404;7.232;2024-03-08T10:27:05;30.57;;;15.43;;
2972;SDS011;1496;51.404;7.232;2024-03-08T10:29:31;25.93;;;16.93;;
2972;SDS011;1496;51.404;7.232;2024-03-08T10:31:57;23.80;;;15.20;;
2972;SDS011;1496;51.404;7.232;2024-03-08T10:34:23;21.10;;;14.27;;
2972;SDS011;1496;51.404;7.232;2024-03-08T10:36:50;23.83;;;14.77;;
2972;SDS011;1496;51.404;7.232;2024-03-08T10:39:23;25.47;;;15.20;;
2972;SDS011;1496;51.404;7.232;2024-03-08T10:41:55;23.63;;;14.73;;
2972;SDS011;1496;51.404;7.232;2024-03-08T10:50:22;24.80;;;14.47;;
2972;SDS011;1496;51.404;7.232;2024-03-08T10:52:38;24.83;;;14.87;;
2972;SDS011;1496;51.404;7.232;2024-03-08T10:55:04;25.00;;;17.13;;
2972;SDS011;1496;51.404;7.232;2024-03-08T10:57:37;31.30;;;18.23;;
2972;SDS011;1496;51.404;7.232;2024-03-08T11:00:04;27.20;;;18.27;;
2972;SDS011;1496;51.404;7.232;2024-03-08T11:02:36;30.90;;;18.17;;
2972;SDS011;1496;51.404;7.232;2024-03-08T11:05:09;30.00;;;19.03;;
2972;SDS011;1496;51.404;7.232;2024-03-08T11:07:40;27.63;;;17.20;;
2972;SDS011;1496;51.404;7.232;2024-03-08T11:10:18;22.03;;;13.17;;
2972;SDS011;1496;51.404;7.232;2024-03-08T11:12:46;15.33;;;10.30;;
2972;SDS011;1496;51.404;7.232;2024-03-08T11:15:13;17.07;;;11.17;;
2972;SDS011;1496;51.404;7.232;2024-03-08T11:17:49;16.57;;;10.20;;
2972;SDS011;1496;51.404;7.232;2024-03-08T11:20:16;17.20;;;10.50;;
2972;SDS011;1496;51.404;7.232;2024-03-08T11:23:00;16.40;;;8.93;;
2972;SDS011;1496;51.404;7.232;2024-03-08T11:25:38;13.77;;;10.40;;
2972;SDS011;1496;51.404;7.232;2024-03-08T11:28:17;16.90;;;9.43;;
2972;SDS011;1496;51.404;7.232;2024-03-08T11:33:24;13.63;;;9.10;;
2972;SDS011;1496;51.404;7.232;2024-03-08T11:36:12;17.43;;;9.70;;
2972;SDS011;1496;51.404;7.232;2024-03-08T11:38:44;17.43;;;9.80;;
2972;SDS011;1496;51.404;7.232;2024-03-08T11:41:17;17.87;;;10.60;;
2972;SDS011;1496;51.404;7.232;2024-03-08T11:43:47;13.80;;;10.30;;
2972;SDS011;1496;51.404;7.232;2024-03-08T11:46:15;14.30;;;9.13;;
2972;SDS011;1496;51.404;7.232;2024-03-08T11:48:42;13.70;;;8.10;;
2972;SDS011;1496;51.404;7.232;2024-03-08T11:51:10;13.60;;;9.30;;
2972;SDS011;1496;51.404;7.232;2024-03-08T11:53:37;11.87;;;8.17;;
2972;SDS011;1496;51.404;7.232;2024-03-08T11:56:07;15.43;;;8.67;;
2972;SDS011;1496;51.404;7.232;2024-03-08T11:58:34;13.60;;;9.47;;
2972;SDS011;1496;51.404;7.232;2024-03-08T12:01:06;17.97;;;8.83;;
2972;SDS011;1496;51.404;7.232;2024-03-08T12:03:40;11.00;;;7.80;;
2972;SDS011;1496;51.404;7.232;2024-03-08T12:06:09;17.53;;;9.73;;
2972;SDS011;1496;51.404;7.232;2024-03-08T12:08:36;13.20;;;9.40;;
2972;SDS011;1496;51.404;7.232;2024-03-08T12:11:05;16.43;;;10.27;;
2972;SDS011;1496;51.404;7.232;2024-03-08T12:13:32;13.60;;;7.77;;
2972;SDS011;1496;51.404;7.232;2024-03-08T12:16:02;15.83;;;8.40;;
2972;SDS011;1496;51.404;7.232;2024-03-08T12:18:30;13.27;;;8.47;;
2972;SDS011;1496;51.404;7.232;2024-03-08T12:21:09;11.67;;;7.90;;
2972;SDS011;1496;51.404;7.232;2024-03-08T12:23:37;12.33;;;7.80;;
2972;SDS011;1496;51.404;7.232;2024-03-08T12:26:14;12.17;;;7.80;;
2972;SDS011;1496;51.404;7.232;2024-03-08T12:28:44;18.43;;;8.07;;
2972;SDS011;1496;51.404;7.232;2024-03-08T12:31:13;12.77;;;9.00;;
2972;SDS011;1496;51.404;7.232;2024-03-08T12:33:52;12.47;;;7.90;;
2972;SDS011;1496;51.404;7.232;2024-03-08T12:36:20;12.10;;;8.20;;
2972;SDS011;1496;51.404;7.232;2024-03-08T12:38:48;10.83;;;7.60;;
2972;SDS011;1496;51.404;7.232;2024-03-08T12:41:17;13.30;;;7.50;;
2972;SDS011;1496;51.404;7.232;2024-03-08T12:43:44;11.30;;;7.43;;
2972;SDS011;1496;51.404;7.232;2024-03-08T12:46:16;11.57;;;7.23;;
2972;SDS011;1496;51.404;7.232;2024-03-08T12:48:42;10.87;;;7.70;;
2972;SDS011;1496;51.404;7.232;2024-03-08T12:51:12;10.80;;;7.30;;
2972;SDS011;1496;51.404;7.232;2024-03-08T12:53:42;10.67;;;6.60;;
2972;SDS011;1496;51.404;7.232;2024-03-08T12:56:11;11.47;;;6.97;;
2972;SDS011;1496;51.404;7.232;2024-03-08T12:58:37;10.63;;;6.57;;
2972;SDS011;1496;51.404;7.232;2024-03-08T13:01:04;12.60;;;6.87;;
2972;SDS011;1496;51.404;7.232;2024-03-08T13:03:30;7.67;;;5.87;;
2972;SDS011;1496;51.404;7.232;2024-03-08T13:05:56;9.60;;;5.80;;
2972;SDS011;1496;51.404;7.232;2024-03-08T13:08:22;8.80;;;6.00;;
2972;SDS011;1496;51.404;7.232;2024-03-08T13:10:50;9.33;;;6.40;;
2972;SDS011;1496;51.404;7.232;2024-03-08T13:13:16;10.40;;;6.03;;
2972;SDS011;1496;51.404;7.232;2024-03-08T13:15:42;10.73;;;7.00;;
2972;SDS011;1496;51.404;7.232;2024-03-08T13:18:08;9.10;;;6.70;;
2972;SDS011;1496;51.404;7.232;2024-03-08T13:20:35;10.87;;;6.63;;
2972;SDS011;1496;51.404;7.232;2024-03-08T13:23:03;10.77;;;6.50;;
2972;SDS011;1496;51.404;7.232;2024-03-08T13:25:32;10.50;;;6.27;;
2972;SDS011;1496;51.404;7.232;2024-03-08T13:27:58;9.33;;;7.00;;
2972;SDS011;1496;51.404;7.232;2024-03-08T13:30:25;9.80;;;7.50;;
2972;SDS011;1496;51.404;7.232;2024-03-08T13:32:54;14.57;;;7.70;;
2972;SDS011;1496;51.404;7.232;2024-03-08T13:35:20;10.57;;;7.07;;
2972;SDS011;1496;51.404;7.232;2024-03-08T13:37:51;9.33;;;6.50;;
2972;SDS011;1496;51.404;7.232;2024-03-08T13:40:17;10.50;;;6.57;;
2972;SDS011;1496;51.404;7.232;2024-03-08T13:42:47;9.63;;;6.60;;
2972;SDS011;1496;51.404;7.232;2024-03-08T13:45:14;10.30;;;6.97;;
2972;SDS011;1496;51.404;7.232;2024-03-08T13:47:43;11.83;;;7.57;;
2972;SDS011;1496;51.404;7.232;2024-03-08T13:50:09;10.10;;;6.33;;
2972;SDS011;1496;51.404;7.232;2024-03-08T13:52:43;11.33;;;7.20;;
2972;SDS011;1496;51.404;7.232;2024-03-08T13:55:09;10.17;;;6.73;;
2972;SDS011;1496;51.404;7.232;2024-03-08T13:57:35;9.77;;;6.23;;
2972;SDS011;1496;51.404;7.232;2024-03-08T14:00:01;12.67;;;7.40;;
2972;SDS011;1496;51.404;7.232;2024-03-08T14:02:38;11.80;;;6.80;;
2972;SDS011;1496;51.404;7.232;2024-03-08T14:05:06;10.77;;;7.80;;
2972;SDS011;1496;51.404;7.232;2024-03-08T14:07:34;9.67;;;6.50;;
2972;SDS011;1496;51.404;7.232;2024-03-08T14:10:00;11.50;;;6.90;;
2972;SDS011;1496;51.404;7.232;2024-03-08T14:12:26;8.40;;;5.90;;
2972;SDS011;1496;51.404;7.232;2024-03-08T14:14:55;11.80;;;6.83;;
2972;SDS011;1496;51.404;7.232;2024-03-08T14:17:25;15.23;;;7.70;;
2972;SDS011;1496;51.404;7.232;2024-03-08T14:19:52;11.43;;;7.73;;
2972;SDS011;1496;51.404;7.232;2024-03-08T14:22:18;15.20;;;7.80;;
2972;SDS011;1496;51.404;7.232;2024-03-08T14:24:45;11.70;;;8.47;;
2972;SDS011;1496;51.404;7.232;2024-03-08T14:27:10;15.43;;;8.07;;
2972;SDS011;1496;51.404;7.232;2024-03-08T14:29:37;10.60;;;7.53;;
2972;SDS011;1496;51.404;7.232;2024-03-08T14:32:06;12.40;;;8.50;;
2972;SDS011;1496;51.404;7.232;2024-03-08T14:34:33;13.87;;;8.37;;
2972;SDS011;1496;51.404;7.232;2024-03-08T14:36:59;11.90;;;7.63;;
2972;SDS011;1496;51.404;7.232;2024-03-08T14:39:25;11.60;;;8.10;;
2972;SDS011;1496;51.404;7.232;2024-03-08T14:41:54;13.33;;;8.53;;
2972;SDS011;1496;51.404;7.232;2024-03-08T14:44:23;13.20;;;8.30;;
2972;SDS011;1496;51.404;7.232;2024-03-08T14:46:58;11.60;;;7.63;;
2972;SDS011;1496;51.404;7.232;2024-03-08T14:49:24;14.40;;;8.13;;
2972;SDS011;1496;51.404;7.232;2024-03-08T14:51:55;13.60;;;8.93;;
2972;SDS011;1496;51.404;7.232;2024-03-08T14:54:23;12.07;;;9.23;;
2972;SDS011;1496;51.404;7.232;2024-03-08T14:56:49;15.50;;;8.27;;
2972;SDS011;1496;51.404;7.232;2024-03-08T14:59:17;13.40;;;9.20;;
2972;SDS011;1496;51.404;7.232;2024-03-08T15:01:44;14.10;;;8.90;;
2972;SDS011;1496;51.404;7.232;2024-03-08T15:04:11;13.13;;;8.97;;
2972;SDS011;1496;51.404;7.232;2024-03-08T15:06:37;11.80;;;7.50;;
2972;SDS011;1496;51.404;7.232;2024-03-08T15:09:04;12.17;;;7.67;;
2972;SDS011;1496;51.404;7.232;2024-03-08T15:11:45;14.27;;;9.03;;
2972;SDS011;1496;51.404;7.232;2024-03-08T15:14:14;13.70;;;8.80;;